sensor_id;sensor_type;location;lat;lon;timestamp;temperature;humidity
23069;DHT22;11702;50.856;4.348;2023-03-15T00:00:54;5.20;99.90
23069;DHT22;11702;50.856;4.348;2023-03-15T00:03:20;5.10;99.90
23069;DHT22;11702;50.856;4.348;2023-03-15T00:05:48;4.90;99.90
23069;DHT22;11702;50.856;4.348;2023-03-15T00:08:14;5.00;99.90
23069;DHT22;11702;50.856;4.348;2023-03-15T00:10:44;4.90;99.90
23069;DHT22;11702;50.856;4.348;2023-03-15T00:13:11;5.10;99.90
23069;DHT22;11702;50.856;4.348;2023-03-15T00:15:49;5.00;99.90
23069;DHT22;11702;50.856;4.348;2023-03-15T00:18:17;5.00;99.90
23069;DHT22;11702;50.856;4.348;2023-03-15T00:20:44;5.00;99.90
23069;DHT22;11702;50.856;4.348;2023-03-15T00:23:10;5.00;99.90
23069;DHT22;11702;50.856;4.348;2023-03-15T00:25:36;5.10;99.90
23069;DHT22;11702;50.856;4.348;2023-03-15T00:28:02;5.00;99.90
23069;DHT22;11702;50.856;4.348;2023-03-15T00:30:28;5.10;99.90
23069;DHT22;11702;50.856;4.348;2023-03-15T00:32:54;5.10;99.90
23069;DHT22;11702;50.856;4.348;2023-03-15T00:35:20;5.10;99.90
23069;DHT22;11702;50.856;4.348;2023-03-15T00:37:46;5.30;99.90
23069;DHT22;11702;50.856;4.348;2023-03-15T00:40:12;5.20;99.90
23069;DHT22;11702;50.856;4.348;2023-03-15T00:42:39;5.30;99.90
23069;DHT22;11702;50.856;4.348;2023-03-15T00:45:05;5.20;99.90
23069;DHT22;11702;50.856;4.348;2023-03-15T00:47:31;5.30;99.90
23069;DHT22;11702;50.856;4.348;2023-03-15T00:49:57;5.20;99.90
23069;DHT22;11702;50.856;4.348;2023-03-15T00:52:22;5.20;99.90
23069;DHT22;11702;50.856;4.348;2023-03-15T00:54:52;5.30;99.90
23069;DHT22;11702;50.856;4.348;2023-03-15T00:57:18;5.40;99.90
23069;DHT22;11702;50.856;4.348;2023-03-15T00:59:44;5.40;99.90
23069;DHT22;11702;50.856;4.348;2023-03-15T01:02:10;5.40;99.90
23069;DHT22;11702;50.856;4.348;2023-03-15T01:04:36;5.40;99.90
23069;DHT22;11702;50.856;4.348;2023-03-15T01:07:03;5.30;99.90
23069;DHT22;11702;50.856;4.348;2023-03-15T01:09:29;5.30;99.90
23069;DHT22;11702;50.856;4.348;2023-03-15T01:11:56;5.20;99.90
23069;DHT22;11702;50.856;4.348;2023-03-15T01:14:22;5.00;99.90
23069;DHT22;11702;50.856;4.348;2023-03-15T01:16:47;4.60;99.90
23069;DHT22;11702;50.856;4.348;2023-03-15T01:19:14;4.40;99.90
23069;DHT22;11702;50.856;4.348;2023-03-15T01:21:40;4.40;99.90
23069;DHT22;11702;50.856;4.348;2023-03-15T01:24:06;4.30;99.90
23069;DHT22;11702;50.856;4.348;2023-03-15T01:26:32;4.40;99.90
23069;DHT22;11702;50.856;4.348;2023-03-15T01:28:57;4.50;99.90
23069;DHT22;11702;50.856;4.348;2023-03-15T01:31:26;4.30;99.90
23069;DHT22;11702;50.856;4.348;2023-03-15T01:33:52;4.20;99.90
23069;DHT22;11702;50.856;4.348;2023-03-15T01:36:19;4.20;99.90
23069;DHT22;11702;50.856;4.348;2023-03-15T01:38:45;4.20;99.90
23069;DHT22;11702;50.856;4.348;2023-03-15T01:41:11;4.20;99.90
23069;DHT22;11702;50.856;4.348;2023-03-15T01:43:38;4.10;99.90
23069;DHT22;11702;50.856;4.348;2023-03-15T01:48:59;4.30;99.90
23069;DHT22;11702;50.856;4.348;2023-03-15T01:51:32;4.40;99.90
23069;DHT22;11702;50.856;4.348;2023-03-15T01:54:16;4.30;99.90
23069;DHT22;11702;50.856;4.348;2023-03-15T01:57:07;4.40;99.90
23069;DHT22;11702;50.856;4.348;2023-03-15T01:59:38;4.50;99.90
23069;DHT22;11702;50.856;4.348;2023-03-15T02:02:05;4.50;99.90
23069;DHT22;11702;50.856;4.348;2023-03-15T02:04:52;4.50;99.90
23069;DHT22;11702;50.856;4.348;2023-03-15T02:07:22;4.70;99.90
23069;DHT22;11702;50.856;4.348;2023-03-15T02:10:05;4.70;99.90
23069;DHT22;11702;50.856;4.348;2023-03-15T02:12:33;4.80;99.90
23069;DHT22;11702;50.856;4.348;2023-03-15T02:15:02;4.70;99.90
23069;DHT22;11702;50.856;4.348;2023-03-15T02:17:35;4.80;99.90
23069;DHT22;11702;50.856;4.348;2023-03-15T02:27:45;5.00;99.90
23069;DHT22;11702;50.856;4.348;2023-03-15T02:30:10;5.00;99.90
23069;DHT22;11702;50.856;4.348;2023-03-15T02:32:36;4.90;99.90
23069;DHT22;11702;50.856;4.348;2023-03-15T02:35:02;4.80;99.90
23069;DHT22;11702;50.856;4.348;2023-03-15T02:37:28;4.90;99.90
23069;DHT22;11702;50.856;4.348;2023-03-15T02:39:54;5.00;99.90
23069;DHT22;11702;50.856;4.348;2023-03-15T02:42:20;5.10;99.90
23069;DHT22;11702;50.856;4.348;2023-03-15T02:44:45;5.10;99.90
23069;DHT22;11702;50.856;4.348;2023-03-15T02:47:16;5.10;99.90
23069;DHT22;11702;50.856;4.348;2023-03-15T02:49:44;5.10;99.90
23069;DHT22;11702;50.856;4.348;2023-03-15T02:52:11;5.10;99.90
23069;DHT22;11702;50.856;4.348;2023-03-15T02:54:38;5.00;99.90
23069;DHT22;11702;50.856;4.348;2023-03-15T02:57:08;5.00;99.90
23069;DHT22;11702;50.856;4.348;2023-03-15T02:59:34;5.00;99.90
23069;DHT22;11702;50.856;4.348;2023-03-15T03:02:00;5.10;99.90
23069;DHT22;11702;50.856;4.348;2023-03-15T03:04:25;5.10;99.90
23069;DHT22;11702;50.856;4.348;2023-03-15T03:06:51;5.10;99.90
23069;DHT22;11702;50.856;4.348;2023-03-15T03:09:17;5.10;99.90
23069;DHT22;11702;50.856;4.348;2023-03-15T03:11:42;5.10;99.90
23069;DHT22;11702;50.856;4.348;2023-03-15T03:14:08;5.10;99.90
23069;DHT22;11702;50.856;4.348;2023-03-15T03:16:34;5.00;99.90
23069;DHT22;11702;50.856;4.348;2023-03-15T03:18:59;5.10;99.90
23069;DHT22;11702;50.856;4.348;2023-03-15T03:21:25;5.20;99.90
23069;DHT22;11702;50.856;4.348;2023-03-15T03:23:51;5.20;99.90
23069;DHT22;11702;50.856;4.348;2023-03-15T03:26:19;5.20;99.90
23069;DHT22;11702;50.856;4.348;2023-03-15T03:28:46;5.20;99.90
23069;DHT22;11702;50.856;4.348;2023-03-15T03:31:22;5.30;99.90
23069;DHT22;11702;50.856;4.348;2023-03-15T03:33:48;5.30;99.90
23069;DHT22;11702;50.856;4.348;2023-03-15T03:36:15;5.20;99.90
23069;DHT22;11702;50.856;4.348;2023-03-15T03:38:43;5.20;99.90
23069;DHT22;11702;50.856;4.348;2023-03-15T03:41:10;5.20;99.90
23069;DHT22;11702;50.856;4.348;2023-03-15T03:43:36;5.20;99.90
23069;DHT22;11702;50.856;4.348;2023-03-15T03:46:02;5.20;99.90
23069;DHT22;11702;50.856;4.348;2023-03-15T03:48:28;5.20;99.90
23069;DHT22;11702;50.856;4.348;2023-03-15T03:50:55;5.10;99.90
23069;DHT22;11702;50.856;4.348;2023-03-15T03:53:21;5.10;99.90
23069;DHT22;11702;50.856;4.348;2023-03-15T03:55:47;5.10;99.90
23069;DHT22;11702;50.856;4.348;2023-03-15T03:58:12;5.00;99.90
23069;DHT22;11702;50.856;4.348;2023-03-15T04:00:39;4.90;99.90
23069;DHT22;11702;50.856;4.348;2023-03-15T04:03:06;4.90;99.90
23069;DHT22;11702;50.856;4.348;2023-03-15T04:05:32;4.80;99.90
23069;DHT22;11702;50.856;4.348;2023-03-15T04:07:58;4.60;99.90
23069;DHT22;11702;50.856;4.348;2023-03-15T04:10:24;4.60;99.90
23069;DHT22;11702;50.856;4.348;2023-03-15T04:12:54;4.60;99.90
23069;DHT22;11702;50.856;4.348;2023-03-15T04:15:20;4.70;99.90
23069;DHT22;11702;50.856;4.348;2023-03-15T04:17:52;4.60;99.90
23069;DHT22;11702;50.856;4.348;2023-03-15T04:20:22;4.70;99.90
23069;DHT22;11702;50.856;4.348;2023-03-15T04:22:49;4.70;99.90
23069;DHT22;11702;50.856;4.348;2023-03-15T04:25:16;4.70;99.90
23069;DHT22;11702;50.856;4.348;2023-03-15T04:27:42;4.80;99.90
23069;DHT22;11702;50.856;4.348;2023-03-15T04:30:10;4.90;99.90
23069;DHT22;11702;50.856;4.348;2023-03-15T04:32:37;4.80;99.90
23069;DHT22;11702;50.856;4.348;2023-03-15T04:35:05;4.80;99.90
23069;DHT22;11702;50.856;4.348;2023-03-15T04:37:30;4.90;99.90
23069;DHT22;11702;50.856;4.348;2023-03-15T04:39:57;4.80;99.90
23069;DHT22;11702;50.856;4.348;2023-03-15T04:42:23;4.90;99.90
23069;DHT22;11702;50.856;4.348;2023-03-15T04:44:52;4.90;99.90
23069;DHT22;11702;50.856;4.348;2023-03-15T04:47:18;4.80;99.90
23069;DHT22;11702;50.856;4.348;2023-03-15T04:49:45;4.70;99.90
23069;DHT22;11702;50.856;4.348;2023-03-15T04:52:11;4.50;99.90
23069;DHT22;11702;50.856;4.348;2023-03-15T04:54:38;4.40;99.90
23069;DHT22;11702;50.856;4.348;2023-03-15T04:57:04;4.40;99.90
23069;DHT22;11702;50.856;4.348;2023-03-15T04:59:30;4.20;99.90
23069;DHT22;11702;50.856;4.348;2023-03-15T05:01:55;4.20;99.90
23069;DHT22;11702;50.856;4.348;2023-03-15T05:04:21;4.20;99.90
23069;DHT22;11702;50.856;4.348;2023-03-15T05:06:47;4.00;99.90
23069;DHT22;11702;50.856;4.348;2023-03-15T05:09:12;4.00;99.90
23069;DHT22;11702;50.856;4.348;2023-03-15T05:11:44;4.00;99.90
23069;DHT22;11702;50.856;4.348;2023-03-15T05:14:10;4.00;99.90
23069;DHT22;11702;50.856;4.348;2023-03-15T05:16:36;3.90;99.90
23069;DHT22;11702;50.856;4.348;2023-03-15T05:19:02;3.80;99.90
23069;DHT22;11702;50.856;4.348;2023-03-15T05:21:27;3.90;99.90
23069;DHT22;11702;50.856;4.348;2023-03-15T05:23:53;3.80;99.90
23069;DHT22;11702;50.856;4.348;2023-03-15T05:26:19;3.80;99.90
23069;DHT22;11702;50.856;4.348;2023-03-15T05:28:44;3.70;99.90
23069;DHT22;11702;50.856;4.348;2023-03-15T05:31:11;3.70;99.90
23069;DHT22;11702;50.856;4.348;2023-03-15T05:33:37;3.70;99.90
23069;DHT22;11702;50.856;4.348;2023-03-15T05:36:05;3.60;99.90
23069;DHT22;11702;50.856;4.348;2023-03-15T05:38:30;3.70;99.90
23069;DHT22;11702;50.856;4.348;2023-03-15T05:40:57;3.70;99.90
23069;DHT22;11702;50.856;4.348;2023-03-15T05:43:23;3.80;99.90
23069;DHT22;11702;50.856;4.348;2023-03-15T05:45:49;3.90;99.90
23069;DHT22;11702;50.856;4.348;2023-03-15T05:48:15;4.00;99.90
23069;DHT22;11702;50.856;4.348;2023-03-15T05:50:41;4.00;99.90
23069;DHT22;11702;50.856;4.348;2023-03-15T05:53:06;3.90;99.90
23069;DHT22;11702;50.856;4.348;2023-03-15T05:55:32;4.00;99.90
23069;DHT22;11702;50.856;4.348;2023-03-15T05:58:00;4.00;99.90
23069;DHT22;11702;50.856;4.348;2023-03-15T06:00:25;4.00;99.90
23069;DHT22;11702;50.856;4.348;2023-03-15T06:02:51;4.00;99.90
23069;DHT22;11702;50.856;4.348;2023-03-15T06:05:17;4.00;99.90
23069;DHT22;11702;50.856;4.348;2023-03-15T06:07:42;3.90;99.90
23069;DHT22;11702;50.856;4.348;2023-03-15T06:10:09;3.90;99.90
23069;DHT22;11702;50.856;4.348;2023-03-15T06:12:35;3.90;99.90
23069;DHT22;11702;50.856;4.348;2023-03-15T06:15:03;3.90;99.90
23069;DHT22;11702;50.856;4.348;2023-03-15T06:17:29;3.90;99.90
23069;DHT22;11702;50.856;4.348;2023-03-15T06:19:55;4.00;99.90
23069;DHT22;11702;50.856;4.348;2023-03-15T06:22:22;4.00;99.90
23069;DHT22;11702;50.856;4.348;2023-03-15T06:24:49;4.00;99.90
23069;DHT22;11702;50.856;4.348;2023-03-15T06:27:16;3.90;99.90
23069;DHT22;11702;50.856;4.348;2023-03-15T06:29:47;3.90;99.90
23069;DHT22;11702;50.856;4.348;2023-03-15T06:32:12;4.00;99.90
23069;DHT22;11702;50.856;4.348;2023-03-15T06:34:38;3.80;99.90
23069;DHT22;11702;50.856;4.348;2023-03-15T06:37:04;3.90;99.90
23069;DHT22;11702;50.856;4.348;2023-03-15T06:39:29;3.90;99.90
23069;DHT22;11702;50.856;4.348;2023-03-15T06:41:58;4.00;99.90
23069;DHT22;11702;50.856;4.348;2023-03-15T06:44:27;4.10;99.90
23069;DHT22;11702;50.856;4.348;2023-03-15T06:46:52;4.20;99.90
23069;DHT22;11702;50.856;4.348;2023-03-15T06:49:18;4.30;99.90
23069;DHT22;11702;50.856;4.348;2023-03-15T06:51:43;4.50;99.90
23069;DHT22;11702;50.856;4.348;2023-03-15T06:54:10;4.50;99.90
23069;DHT22;11702;50.856;4.348;2023-03-15T06:56:35;4.60;99.90
23069;DHT22;11702;50.856;4.348;2023-03-15T06:59:02;4.70;99.90
23069;DHT22;11702;50.856;4.348;2023-03-15T07:01:27;4.70;99.90
23069;DHT22;11702;50.856;4.348;2023-03-15T07:03:53;4.90;99.90
23069;DHT22;11702;50.856;4.348;2023-03-15T07:06:19;5.10;99.90
23069;DHT22;11702;50.856;4.348;2023-03-15T07:08:44;5.20;99.90
23069;DHT22;11702;50.856;4.348;2023-03-15T07:11:10;5.30;99.90
23069;DHT22;11702;50.856;4.348;2023-03-15T07:13:36;5.30;99.90
23069;DHT22;11702;50.856;4.348;2023-03-15T07:16:02;5.40;99.90
23069;DHT22;11702;50.856;4.348;2023-03-15T07:18:28;5.40;99.90
23069;DHT22;11702;50.856;4.348;2023-03-15T07:20:58;5.40;99.90
23069;DHT22;11702;50.856;4.348;2023-03-15T07:23:24;5.50;99.90
23069;DHT22;11702;50.856;4.348;2023-03-15T07:25:50;5.60;99.90
23069;DHT22;11702;50.856;4.348;2023-03-15T07:28:16;5.60;99.90
23069;DHT22;11702;50.856;4.348;2023-03-15T07:30:42;5.50;99.90
23069;DHT22;11702;50.856;4.348;2023-03-15T07:33:17;5.40;99.90
23069;DHT22;11702;50.856;4.348;2023-03-15T07:35:43;5.50;99.90
23069;DHT22;11702;50.856;4.348;2023-03-15T07:38:08;5.40;99.90
23069;DHT22;11702;50.856;4.348;2023-03-15T07:40:35;5.40;99.90
23069;DHT22;11702;50.856;4.348;2023-03-15T07:43:01;5.40;99.90
23069;DHT22;11702;50.856;4.348;2023-03-15T07:45:26;5.50;99.90
23069;DHT22;11702;50.856;4.348;2023-03-15T07:47:52;5.60;99.90
23069;DHT22;11702;50.856;4.348;2023-03-15T07:50:18;5.60;99.90
23069;DHT22;11702;50.856;4.348;2023-03-15T07:52:43;5.80;99.90
23069;DHT22;11702;50.856;4.348;2023-03-15T07:55:09;6.10;99.90
23069;DHT22;11702;50.856;4.348;2023-03-15T07:57:35;6.30;99.90
23069;DHT22;11702;50.856;4.348;2023-03-15T08:00:00;6.30;99.90
23069;DHT22;11702;50.856;4.348;2023-03-15T08:02:26;6.30;99.90
23069;DHT22;11702;50.856;4.348;2023-03-15T08:04:53;6.30;99.90
23069;DHT22;11702;50.856;4.348;2023-03-15T08:07:18;6.30;99.90
23069;DHT22;11702;50.856;4.348;2023-03-15T08:09:44;6.50;99.90
23069;DHT22;11702;50.856;4.348;2023-03-15T08:12:10;6.50;99.90
23069;DHT22;11702;50.856;4.348;2023-03-15T08:14:36;6.70;99.90
23069;DHT22;11702;50.856;4.348;2023-03-15T08:17:02;6.70;99.90
23069;DHT22;11702;50.856;4.348;2023-03-15T08:19:29;6.80;99.90
23069;DHT22;11702;50.856;4.348;2023-03-15T08:21:54;6.80;99.90
23069;DHT22;11702;50.856;4.348;2023-03-15T08:24:20;6.90;99.90
23069;DHT22;11702;50.856;4.348;2023-03-15T08:26:47;6.90;99.90
23069;DHT22;11702;50.856;4.348;2023-03-15T08:29:13;6.80;99.90
23069;DHT22;11702;50.856;4.348;2023-03-15T08:31:39;6.90;99.90
23069;DHT22;11702;50.856;4.348;2023-03-15T08:34:05;6.80;99.90
23069;DHT22;11702;50.856;4.348;2023-03-15T08:36:31;6.90;99.90
23069;DHT22;11702;50.856;4.348;2023-03-15T08:38:57;6.90;99.90
23069;DHT22;11702;50.856;4.348;2023-03-15T08:41:23;7.00;99.90
23069;DHT22;11702;50.856;4.348;2023-03-15T08:43:48;7.20;99.90
23069;DHT22;11702;50.856;4.348;2023-03-15T08:46:14;7.50;99.90
23069;DHT22;11702;50.856;4.348;2023-03-15T08:48:41;7.70;99.90
23069;DHT22;11702;50.856;4.348;2023-03-15T08:51:07;7.80;99.90
23069;DHT22;11702;50.856;4.348;2023-03-15T08:53:33;8.10;99.90
23069;DHT22;11702;50.856;4.348;2023-03-15T08:55:59;8.10;99.90
23069;DHT22;11702;50.856;4.348;2023-03-15T08:58:25;8.30;99.90
23069;DHT22;11702;50.856;4.348;2023-03-15T09:00:51;8.20;99.90
23069;DHT22;11702;50.856;4.348;2023-03-15T09:03:18;8.30;99.90
23069;DHT22;11702;50.856;4.348;2023-03-15T09:05:44;8.50;99.90
23069;DHT22;11702;50.856;4.348;2023-03-15T09:08:10;8.70;99.90
23069;DHT22;11702;50.856;4.348;2023-03-15T09:10:36;8.70;99.90
23069;DHT22;11702;50.856;4.348;2023-03-15T09:13:02;8.70;99.90
23069;DHT22;11702;50.856;4.348;2023-03-15T09:15:30;8.70;99.90
23069;DHT22;11702;50.856;4.348;2023-03-15T09:17:56;8.80;99.90
23069;DHT22;11702;50.856;4.348;2023-03-15T09:20:21;8.80;99.90
23069;DHT22;11702;50.856;4.348;2023-03-15T09:22:57;8.80;99.90
23069;DHT22;11702;50.856;4.348;2023-03-15T09:25:23;8.70;99.90
23069;DHT22;11702;50.856;4.348;2023-03-15T09:27:50;8.80;99.90
23069;DHT22;11702;50.856;4.348;2023-03-15T09:30:16;8.60;99.90
23069;DHT22;11702;50.856;4.348;2023-03-15T09:32:42;8.70;99.90
23069;DHT22;11702;50.856;4.348;2023-03-15T09:35:11;8.80;99.90
23069;DHT22;11702;50.856;4.348;2023-03-15T09:37:37;8.50;99.90
23069;DHT22;11702;50.856;4.348;2023-03-15T09:40:03;8.30;99.90
23069;DHT22;11702;50.856;4.348;2023-03-15T09:45:16;7.70;99.90
23069;DHT22;11702;50.856;4.348;2023-03-15T09:48:05;7.40;99.90
23069;DHT22;11702;50.856;4.348;2023-03-15T09:53:23;7.00;99.90
23069;DHT22;11702;50.856;4.348;2023-03-15T09:55:59;7.20;99.90
23069;DHT22;11702;50.856;4.348;2023-03-15T09:58:31;7.20;99.90
23069;DHT22;11702;50.856;4.348;2023-03-15T10:01:05;7.10;99.90
23069;DHT22;11702;50.856;4.348;2023-03-15T10:03:40;7.00;99.90
23069;DHT22;11702;50.856;4.348;2023-03-15T10:06:18;7.00;99.90
23069;DHT22;11702;50.856;4.348;2023-03-15T10:08:45;7.00;99.90
23069;DHT22;11702;50.856;4.348;2023-03-15T10:16:47;7.20;99.90
23069;DHT22;11702;50.856;4.348;2023-03-15T10:19:39;7.10;99.90
23069;DHT22;11702;50.856;4.348;2023-03-15T10:22:19;7.10;99.90
23069;DHT22;11702;50.856;4.348;2023-03-15T10:25:16;7.10;99.90
23069;DHT22;11702;50.856;4.348;2023-03-15T10:30:35;7.20;99.90
23069;DHT22;11702;50.856;4.348;2023-03-15T10:35:30;7.20;99.90
23069;DHT22;11702;50.856;4.348;2023-03-15T10:37:56;7.20;99.90
23069;DHT22;11702;50.856;4.348;2023-03-15T10:40:44;7.30;99.90
23069;DHT22;11702;50.856;4.348;2023-03-15T10:45:41;7.50;99.90
23069;DHT22;11702;50.856;4.348;2023-03-15T10:48:10;7.60;99.90
23069;DHT22;11702;50.856;4.348;2023-03-15T10:50:37;7.70;99.90
23069;DHT22;11702;50.856;4.348;2023-03-15T10:53:09;7.50;99.90
23069;DHT22;11702;50.856;4.348;2023-03-15T10:55:41;7.60;99.90
23069;DHT22;11702;50.856;4.348;2023-03-15T10:58:20;7.70;99.90
23069;DHT22;11702;50.856;4.348;2023-03-15T11:00:59;7.70;99.90
23069;DHT22;11702;50.856;4.348;2023-03-15T11:03:25;7.90;99.90
23069;DHT22;11702;50.856;4.348;2023-03-15T11:05:53;8.00;99.90
23069;DHT22;11702;50.856;4.348;2023-03-15T11:08:43;8.10;99.90
23069;DHT22;11702;50.856;4.348;2023-03-15T11:11:08;8.40;99.90
23069;DHT22;11702;50.856;4.348;2023-03-15T11:13:36;8.60;99.90
23069;DHT22;11702;50.856;4.348;2023-03-15T11:18:45;8.90;99.90
23069;DHT22;11702;50.856;4.348;2023-03-15T11:21:15;9.10;99.90
23069;DHT22;11702;50.856;4.348;2023-03-15T11:23:42;9.30;99.90
23069;DHT22;11702;50.856;4.348;2023-03-15T11:26:18;9.30;99.90
23069;DHT22;11702;50.856;4.348;2023-03-15T11:29:33;9.30;99.90
23069;DHT22;11702;50.856;4.348;2023-03-15T11:31:34;9.40;99.90
23069;DHT22;11702;50.856;4.348;2023-03-15T11:34:21;9.30;99.90
23069;DHT22;11702;50.856;4.348;2023-03-15T11:36:52;9.40;99.90
23069;DHT22;11702;50.856;4.348;2023-03-15T11:39:42;9.60;99.90
23069;DHT22;11702;50.856;4.348;2023-03-15T11:42:17;9.90;99.90
23069;DHT22;11702;50.856;4.348;2023-03-15T11:44:47;9.90;99.90
23069;DHT22;11702;50.856;4.348;2023-03-15T11:47:41;10.10;99.90
23069;DHT22;11702;50.856;4.348;2023-03-15T11:50:13;10.20;99.90
23069;DHT22;11702;50.856;4.348;2023-03-15T11:52:39;10.30;99.90
23069;DHT22;11702;50.856;4.348;2023-03-15T11:55:06;10.20;99.90
23069;DHT22;11702;50.856;4.348;2023-03-15T11:57:42;9.90;99.90
23069;DHT22;11702;50.856;4.348;2023-03-15T12:02:50;10.00;99.90
23069;DHT22;11702;50.856;4.348;2023-03-15T12:08:40;10.40;99.90
23069;DHT22;11702;50.856;4.348;2023-03-15T12:13:36;10.40;99.90
23069;DHT22;11702;50.856;4.348;2023-03-15T12:16:05;10.50;99.90
23069;DHT22;11702;50.856;4.348;2023-03-15T12:18:43;10.70;99.90
23069;DHT22;11702;50.856;4.348;2023-03-15T12:21:16;10.80;99.90
23069;DHT22;11702;50.856;4.348;2023-03-15T12:23:54;10.90;99.30
23069;DHT22;11702;50.856;4.348;2023-03-15T12:26:24;11.00;99.20
23069;DHT22;11702;50.856;4.348;2023-03-15T12:29:04;11.10;96.90
23069;DHT22;11702;50.856;4.348;2023-03-15T12:31:58;11.20;97.60
23069;DHT22;11702;50.856;4.348;2023-03-15T12:34:39;11.30;98.00
23069;DHT22;11702;50.856;4.348;2023-03-15T12:37:17;11.20;96.70
23069;DHT22;11702;50.856;4.348;2023-03-15T12:39:48;11.50;98.10
23069;DHT22;11702;50.856;4.348;2023-03-15T12:53:38;12.30;96.70
23069;DHT22;11702;50.856;4.348;2023-03-15T12:56:46;12.40;97.00
23069;DHT22;11702;50.856;4.348;2023-03-15T13:02:27;12.40;94.00
23069;DHT22;11702;50.856;4.348;2023-03-15T13:19:17;12.10;96.70
23069;DHT22;11702;50.856;4.348;2023-03-15T13:30:32;12.10;94.70
23069;DHT22;11702;50.856;4.348;2023-03-15T13:33:09;12.00;94.50
23069;DHT22;11702;50.856;4.348;2023-03-15T13:35:47;12.00;93.50
23069;DHT22;11702;50.856;4.348;2023-03-15T13:40:50;11.80;94.50
23069;DHT22;11702;50.856;4.348;2023-03-15T13:43:16;11.80;94.90
23069;DHT22;11702;50.856;4.348;2023-03-15T13:45:43;12.00;94.90
23069;DHT22;11702;50.856;4.348;2023-03-15T13:48:09;12.20;94.10
23069;DHT22;11702;50.856;4.348;2023-03-15T13:50:35;12.20;94.50
23069;DHT22;11702;50.856;4.348;2023-03-15T13:53:01;12.30;93.60
23069;DHT22;11702;50.856;4.348;2023-03-15T13:55:34;12.40;93.80
23069;DHT22;11702;50.856;4.348;2023-03-15T13:58:06;12.60;92.60
23069;DHT22;11702;50.856;4.348;2023-03-15T14:00:34;12.70;92.60
23069;DHT22;11702;50.856;4.348;2023-03-15T14:03:12;12.70;92.00
23069;DHT22;11702;50.856;4.348;2023-03-15T14:05:45;12.90;91.40
23069;DHT22;11702;50.856;4.348;2023-03-15T14:08:37;12.70;90.90
23069;DHT22;11702;50.856;4.348;2023-03-15T14:14:34;12.40;94.10
23069;DHT22;11702;50.856;4.348;2023-03-15T14:17:32;12.40;93.90
23069;DHT22;11702;50.856;4.348;2023-03-15T14:20:14;12.30;93.70
23069;DHT22;11702;50.856;4.348;2023-03-15T14:22:51;12.40;93.60
23069;DHT22;11702;50.856;4.348;2023-03-15T14:25:42;12.50;94.40
23069;DHT22;11702;50.856;4.348;2023-03-15T14:28:22;12.60;93.90
23069;DHT22;11702;50.856;4.348;2023-03-15T14:30:54;12.90;94.20
23069;DHT22;11702;50.856;4.348;2023-03-15T14:33:34;13.20;93.10
23069;DHT22;11702;50.856;4.348;2023-03-15T14:36:28;13.30;93.00
23069;DHT22;11702;50.856;4.348;2023-03-15T14:39:02;13.20;91.70
23069;DHT22;11702;50.856;4.348;2023-03-15T14:41:31;13.10;91.90
23069;DHT22;11702;50.856;4.348;2023-03-15T14:44:03;13.00;91.60
23069;DHT22;11702;50.856;4.348;2023-03-15T14:46:32;13.10;92.50
23069;DHT22;11702;50.856;4.348;2023-03-15T14:49:31;13.00;91.90
23069;DHT22;11702;50.856;4.348;2023-03-15T14:52:17;13.00;90.70
23069;DHT22;11702;50.856;4.348;2023-03-15T14:54:49;13.00;92.10
23069;DHT22;11702;50.856;4.348;2023-03-15T14:57:38;12.90;92.30
23069;DHT22;11702;50.856;4.348;2023-03-15T15:00:10;13.00;93.10
23069;DHT22;11702;50.856;4.348;2023-03-15T15:02:56;12.80;92.90
23069;DHT22;11702;50.856;4.348;2023-03-15T15:05:37;12.80;93.80
23069;DHT22;11702;50.856;4.348;2023-03-15T15:08:11;12.80;93.80
23069;DHT22;11702;50.856;4.348;2023-03-15T15:10:45;12.70;94.10
23069;DHT22;11702;50.856;4.348;2023-03-15T15:13:26;12.70;93.80
23069;DHT22;11702;50.856;4.348;2023-03-15T15:15:53;12.90;93.80
23069;DHT22;11702;50.856;4.348;2023-03-15T15:18:23;12.90;93.00
23069;DHT22;11702;50.856;4.348;2023-03-15T15:20:48;12.70;93.10
23069;DHT22;11702;50.856;4.348;2023-03-15T15:23:21;12.80;92.70
23069;DHT22;11702;50.856;4.348;2023-03-15T15:25:52;12.60;93.40
23069;DHT22;11702;50.856;4.348;2023-03-15T15:28:19;12.50;93.90
23069;DHT22;11702;50.856;4.348;2023-03-15T15:30:45;12.60;93.30
23069;DHT22;11702;50.856;4.348;2023-03-15T15:33:14;12.50;93.10
23069;DHT22;11702;50.856;4.348;2023-03-15T15:35:39;12.60;93.30
23069;DHT22;11702;50.856;4.348;2023-03-15T15:38:10;12.80;92.30
23069;DHT22;11702;50.856;4.348;2023-03-15T15:40:41;12.80;92.60
23069;DHT22;11702;50.856;4.348;2023-03-15T15:43:10;12.80;91.80
23069;DHT22;11702;50.856;4.348;2023-03-15T15:45:41;12.50;92.70
23069;DHT22;11702;50.856;4.348;2023-03-15T15:48:07;12.50;93.00
23069;DHT22;11702;50.856;4.348;2023-03-15T15:50:35;12.40;92.40
23069;DHT22;11702;50.856;4.348;2023-03-15T15:53:04;12.40;92.40
23069;DHT22;11702;50.856;4.348;2023-03-15T15:55:35;12.40;92.80
23069;DHT22;11702;50.856;4.348;2023-03-15T15:58:02;12.30;92.90
23069;DHT22;11702;50.856;4.348;2023-03-15T16:00:29;12.20;92.90
23069;DHT22;11702;50.856;4.348;2023-03-15T16:02:57;12.20;92.00
23069;DHT22;11702;50.856;4.348;2023-03-15T16:05:28;12.10;92.70
23069;DHT22;11702;50.856;4.348;2023-03-15T16:07:57;12.10;92.80
23069;DHT22;11702;50.856;4.348;2023-03-15T16:10:28;12.20;92.80
23069;DHT22;11702;50.856;4.348;2023-03-15T16:13:07;12.20;93.00
23069;DHT22;11702;50.856;4.348;2023-03-15T16:15:35;12.10;92.60
23069;DHT22;11702;50.856;4.348;2023-03-15T16:18:11;12.10;93.60
23069;DHT22;11702;50.856;4.348;2023-03-15T16:20:53;12.00;93.90
23069;DHT22;11702;50.856;4.348;2023-03-15T16:23:29;12.00;93.80
23069;DHT22;11702;50.856;4.348;2023-03-15T16:25:55;11.90;94.20
23069;DHT22;11702;50.856;4.348;2023-03-15T16:28:25;11.90;94.80
23069;DHT22;11702;50.856;4.348;2023-03-15T16:31:12;11.70;94.90
23069;DHT22;11702;50.856;4.348;2023-03-15T16:33:49;11.50;95.30
23069;DHT22;11702;50.856;4.348;2023-03-15T16:36:18;11.30;95.10
23069;DHT22;11702;50.856;4.348;2023-03-15T16:39:06;11.30;94.60
23069;DHT22;11702;50.856;4.348;2023-03-15T16:41:41;11.30;94.60
23069;DHT22;11702;50.856;4.348;2023-03-15T16:44:13;11.20;94.60
23069;DHT22;11702;50.856;4.348;2023-03-15T16:46:49;11.10;94.10
23069;DHT22;11702;50.856;4.348;2023-03-15T16:49:17;11.10;94.90
23069;DHT22;11702;50.856;4.348;2023-03-15T16:51:46;11.00;94.90
23069;DHT22;11702;50.856;4.348;2023-03-15T16:54:13;11.10;95.50
23069;DHT22;11702;50.856;4.348;2023-03-15T16:56:39;10.90;96.10
23069;DHT22;11702;50.856;4.348;2023-03-15T16:59:05;10.90;95.70
23069;DHT22;11702;50.856;4.348;2023-03-15T17:01:31;10.90;95.90
23069;DHT22;11702;50.856;4.348;2023-03-15T17:04:01;10.80;95.70
23069;DHT22;11702;50.856;4.348;2023-03-15T17:06:27;10.70;96.10
23069;DHT22;11702;50.856;4.348;2023-03-15T17:09:04;10.60;95.60
23069;DHT22;11702;50.856;4.348;2023-03-15T17:11:38;10.50;95.80
23069;DHT22;11702;50.856;4.348;2023-03-15T17:14:11;10.70;95.70
23069;DHT22;11702;50.856;4.348;2023-03-15T17:16:41;10.70;95.90
23069;DHT22;11702;50.856;4.348;2023-03-15T17:19:11;10.60;95.70
23069;DHT22;11702;50.856;4.348;2023-03-15T17:21:37;10.30;95.60